Time;durP1;ratioP1;P1;durP2;ratioP2;P2;SDS_P1;SDS_P2;PMS_P1;PMS_P2;Temp;Humidity;BMP_temperature;BMP_pressure;BME280_temperature;BME280_humidity;BME280_pressure;Samples;Min_cycle;Max_cycle;Signal;HPM_P1;HPM_P2
2023/01/20 00:00:50;;;;;;;25.52;6.57;;;;;;;1.82;100.00;98182.69;5159619;27;20111;-63
2023/01/20 00:03:17;;;;;;;19.60;5.55;;;;;;;1.68;100.00;98176.78;5159163;27;20054;-66
2023/01/20 00:05:50;;;;;;;9.65;5.13;;;;;;;1.59;100.00;98176.84;5159100;27;20054;-63
2023/01/20 00:08:16;;;;;;;18.95;5.57;;;;;;;1.47;100.00;98162.50;5159422;27;20118;-66
2023/01/20 00:10:42;;;;;;;17.05;5.28;;;;;;;1.70;100.00;98158.34;5159159;27;20055;-64
2023/01/20 00:13:09;;;;;;;11.38;5.25;;;;;;;1.92;100.00;98153.69;5159174;27;20407;-65
2023/01/20 00:15:35;;;;;;;11.00;5.30;;;;;;;2.00;100.00;98159.03;5159006;27;20070;-66
2023/01/20 00:18:01;;;;;;;28.55;5.68;;;;;;;2.01;100.00;98151.72;5159171;27;20047;-65
2023/01/20 00:20:28;;;;;;;18.40;4.47;;;;;;;1.86;100.00;98153.09;5158979;27;20051;-66
2023/01/20 00:22:54;;;;;;;13.15;5.43;;;;;;;1.68;100.00;98167.91;5159053;27;20046;-63
2023/01/20 00:25:20;;;;;;;51.05;5.32;;;;;;;1.87;100.00;98160.88;5158118;27;20047;-67
2023/01/20 00:27:47;;;;;;;15.38;4.63;;;;;;;1.76;100.00;98156.22;5159236;27;20051;-63
2023/01/20 00:30:13;;;;;;;43.67;5.47;;;;;;;1.96;100.00;98149.97;5158652;27;20130;-66
2023/01/20 00:32:43;;;;;;;10.30;4.18;;;;;;;2.01;100.00;98154.41;5158976;27;20050;-67
2023/01/20 00:35:10;;;;;;;12.50;3.92;;;;;;;2.24;100.00;98155.59;5159027;27;20297;-67
2023/01/20 00:37:37;;;;;;;11.55;4.85;;;;;;;2.38;100.00;98162.63;5158809;27;20056;-66
2023/01/20 00:40:04;;;;;;;13.43;4.82;;;;;;;2.20;100.00;98173.63;5158881;27;20054;-63
2023/01/20 00:42:31;;;;;;;17.98;4.97;;;;;;;2.42;100.00;98164.31;5158548;27;20049;-63
2023/01/20 00:44:57;;;;;;;46.95;5.13;;;;;;;2.23;100.00;98182.97;5158778;27;20051;-66
2023/01/20 00:47:24;;;;;;;32.70;4.82;;;;;;;2.33;100.00;98180.66;5158584;27;20055;-63
2023/01/20 00:49:50;;;;;;;14.60;4.90;;;;;;;2.09;100.00;98205.69;5158786;27;20046;-66
2023/01/20 00:52:17;;;;;;;26.95;5.90;;;;;;;1.98;100.00;98203.72;5158311;27;20047;-63
2023/01/20 00:54:44;;;;;;;11.85;5.95;;;;;;;2.09;100.00;98200.28;5158842;27;20050;-67
2023/01/20 00:57:10;;;;;;;17.45;5.32;;;;;;;2.44;100.00;98191.03;5158281;27;20091;-63
2023/01/20 00:59:36;;;;;;;25.25;6.13;;;;;;;2.28;100.00;98207.09;5158506;27;20047;-66
2023/01/20 01:02:03;;;;;;;13.85;5.95;;;;;;;2.38;100.00;98211.31;5158481;27;20061;-64
2023/01/20 01:04:29;;;;;;;32.13;7.97;;;;;;;2.30;100.00;98185.91;5158244;27;20058;-67
2023/01/20 01:06:56;;;;;;;29.95;7.43;;;;;;;2.35;100.00;98191.91;5158290;27;20049;-64
2023/01/20 01:09:22;;;;;;;22.52;7.88;;;;;;;2.42;100.00;98185.16;5158301;27;20065;-63
2023/01/20 01:11:49;;;;;;;22.45;8.25;;;;;;;2.00;100.00;98188.75;5158376;27;20395;-66
2023/01/20 01:14:16;;;;;;;32.80;8.18;;;;;;;2.01;100.00;98160.59;5158178;27;20055;-66
2023/01/20 01:16:43;;;;;;;43.83;9.07;;;;;;;2.66;100.00;98122.19;5158490;27;20051;-62
2023/01/20 01:19:09;;;;;;;44.22;9.43;;;;;;;2.79;100.00;98138.06;5158355;27;20396;-66
2023/01/20 01:21:36;;;;;;;23.92;7.55;;;;;;;2.50;100.00;98165.34;5158337;27;20046;-64
2023/01/20 01:24:02;;;;;;;35.33;9.02;;;;;;;2.48;100.00;98154.84;5157985;27;20388;-64
2023/01/20 01:26:28;;;;;;;49.97;8.23;;;;;;;2.55;100.00;98159.72;5158350;27;20051;-63
2023/01/20 01:28:55;;;;;;;22.75;8.23;;;;;;;2.25;100.00;98162.59;5157858;27;20047;-67
2023/01/20 01:31:22;;;;;;;32.42;9.65;;;;;;;2.70;100.00;98129.31;5158160;27;20047;-62
2023/01/20 01:33:48;;;;;;;25.27;8.07;;;;;;;2.34;100.00;98149.78;5157877;27;20062;-66
2023/01/20 01:36:16;;;;;;;33.05;9.05;;;;;;;2.47;100.00;98123.53;5160509;27;20427;-66
2023/01/20 01:38:43;;;;;;;33.78;9.57;;;;;;;2.44;100.00;98107.19;5161671;27;20050;-64
2023/01/20 01:41:11;;;;;;;25.17;8.15;;;;;;;2.26;100.00;98122.81;5161396;27;20115;-63
2023/01/20 01:43:38;;;;;;;28.25;7.72;;;;;;;1.96;100.00;98119.47;5161845;27;20051;-63
2023/01/20 01:46:06;;;;;;;30.10;8.82;;;;;;;2.16;100.00;98069.16;5161437;27;20043;-67
2023/01/20 01:48:36;;;;;;;39.35;8.63;;;;;;;2.18;100.00;98051.47;5161727;27;20051;-63
2023/01/20 01:51:08;;;;;;;71.53;10.00;;;;;;;2.49;100.00;98031.19;5161510;27;20069;-65
2023/01/20 01:53:41;;;;;;;24.25;8.93;;;;;;;2.09;100.00;98011.00;5161678;27;20054;-65
2023/01/20 01:56:09;;;;;;;38.13;9.25;;;;;;;2.17;100.00;97993.13;5161564;27;20051;-65
2023/01/20 01:58:38;;;;;;;80.47;11.55;;;;;;;2.10;100.00;97987.50;5161406;27;20046;-62
2023/01/20 02:01:05;;;;;;;28.58;9.40;;;;;;;2.10;100.00;97965.88;5161230;27;20054;-65
2023/01/20 02:03:43;;;;;;;51.35;9.98;;;;;;;2.28;100.00;97948.28;5161218;27;20055;-64
2023/01/20 02:06:10;;;;;;;71.05;10.90;;;;;;;2.49;100.00;97950.03;5161453;27;20047;-64
2023/01/20 02:08:37;;;;;;;36.55;9.30;;;;;;;2.34;100.00;97949.63;5161103;27;20055;-65
2023/01/20 02:11:03;;;;;;;55.08;11.10;;;;;;;2.56;100.00;97953.75;5161360;27;20046;-66
2023/01/20 02:13:30;;;;;;;37.83;10.25;;;;;;;2.53;100.00;97956.34;5160982;27;20046;-62
2023/01/20 02:16:03;;;;;;;20.67;9.65;;;;;;;2.36;100.00;97960.88;5161441;27;20051;-66
2023/01/20 02:18:42;;;;;;;26.67;9.07;;;;;;;2.51;100.00;97953.22;5161172;27;20053;-65
2023/01/20 02:21:32;;;;;;;27.35;10.30;;;;;;;2.49;100.00;97950.03;5160819;27;20331;-65
2023/01/20 02:24:17;;;;;;;28.17;9.05;;;;;;;2.51;100.00;97953.22;5161217;27;20054;-66
2023/01/20 02:27:07;;;;;;;31.45;9.85;;;;;;;2.49;100.00;97966.28;5160727;27;20047;-63
2023/01/20 02:30:11;;;;;;;28.98;9.45;;;;;;;2.41;100.00;97968.00;5156016;27;20118;-66
2023/01/20 02:32:46;;;;;;;25.00;9.35;;;;;;;2.43;100.00;97959.50;5160920;27;20396;-65
2023/01/20 02:35:18;;;;;;;21.67;8.20;;;;;;;2.43;100.00;97954.91;5160642;27;20051;-67
2023/01/20 02:37:48;;;;;;;22.90;8.77;;;;;;;2.57;100.00;97968.88;5161135;27;20365;-64
2023/01/20 02:40:29;;;;;;;21.42;9.00;;;;;;;2.63;100.00;97985.63;5160464;27;20098;-63
2023/01/20 02:43:06;;;;;;;20.45;9.27;;;;;;;2.49;100.00;97974.41;5160932;27;20049;-64
2023/01/20 02:45:41;;;;;;;23.73;9.23;;;;;;;2.73;100.00;97970.84;5160755;27;20046;-67
2023/01/20 02:48:18;;;;;;;22.10;8.85;;;;;;;3.02;100.00;97970.53;5159940;27;20051;-67
2023/01/20 02:50:51;;;;;;;20.75;9.85;;;;;;;2.81;100.00;97983.47;5160724;27;20061;-62
2023/01/20 02:53:20;;;;;;;22.95;10.80;;;;;;;2.89;100.00;97989.88;5160462;27;20061;-64
2023/01/20 02:55:48;;;;;;;20.10;9.55;;;;;;;2.86;100.00;98002.16;5160495;27;20047;-65
2023/01/20 02:58:21;;;;;;;22.48;9.55;;;;;;;2.65;100.00;97996.91;5160267;27;20055;-66
2023/01/20 03:00:52;;;;;;;26.37;11.00;;;;;;;2.70;100.00;97983.16;5160631;27;20061;-64
2023/01/20 03:03:25;;;;;;;26.77;11.13;;;;;;;2.82;100.00;97988.53;5160048;27;20087;-63
2023/01/20 03:05:56;;;;;;;30.35;13.65;;;;;;;2.59;100.00;98004.47;5160107;27;20422;-66
2023/01/20 03:08:26;;;;;;;32.13;15.18;;;;;;;2.62;100.00;98004.94;5160452;27;20047;-66
2023/01/20 03:10:57;;;;;;;39.40;16.92;;;;;;;2.67;100.00;98000.09;5160162;27;20050;-67
2023/01/20 03:13:30;;;;;;;33.53;15.10;;;;;;;2.55;100.00;98002.78;5160260;27;20043;-64
2023/01/20 03:15:59;;;;;;;31.60;14.50;;;;;;;2.75;100.00;98001.84;5159965;27;20095;-66
2023/01/20 03:18:28;;;;;;;32.45;16.13;;;;;;;2.68;100.00;98000.88;5160365;27;20051;-66
2023/01/20 03:20:56;;;;;;;35.13;15.82;;;;;;;2.80;100.00;97995.44;5159843;27;20047;-66
2023/01/20 03:23:22;;;;;;;34.78;16.27;;;;;;;3.13;100.00;98010.66;5160271;27;20061;-66
2023/01/20 03:25:49;;;;;;;34.30;16.15;;;;;;;3.14;100.00;98026.59;5159776;27;20415;-62
2023/01/20 03:28:15;;;;;;;33.63;16.83;;;;;;;3.02;100.00;98042.88;5160036;27;20046;-66
2023/01/20 03:30:42;;;;;;;37.25;16.75;;;;;;;3.17;100.00;98052.22;5160005;27;20051;-63
2023/01/20 03:33:09;;;;;;;32.83;15.60;;;;;;;2.73;100.00;98060.97;5159859;27;20046;-66
2023/01/20 03:35:38;;;;;;;34.60;14.70;;;;;;;2.64;100.00;98060.28;5159795;27;20051;-64
2023/01/20 03:38:04;;;;;;;33.92;12.80;;;;;;;2.65;100.00;98066.50;5159760;27;20051;-62
2023/01/20 03:40:36;;;;;;;22.52;11.73;;;;;;;2.95;100.00;98048.06;5159870;27;20050;-67
2023/01/20 03:43:11;;;;;;;24.40;11.70;;;;;;;2.60;100.00;98064.81;5159599;27;20047;-65
2023/01/20 03:45:45;;;;;;;22.73;11.07;;;;;;;2.59;100.00;98057.81;5159988;27;20046;-64
2023/01/20 03:48:18;;;;;;;24.58;11.27;;;;;;;2.69;100.00;98057.34;5159468;27;20321;-67
2023/01/20 03:50:52;;;;;;;28.27;14.05;;;;;;;2.52;100.00;98063.00;5159359;27;20061;-66
2023/01/20 03:53:28;;;;;;;26.02;13.85;;;;;;;2.42;100.00;98064.22;5159715;27;20046;-65
2023/01/20 03:56:01;;;;;;;38.53;18.48;;;;;;;2.68;100.00;98066.59;5159286;27;20042;-63
2023/01/20 03:58:30;;;;;;;44.83;20.70;;;;;;;2.50;100.00;98063.34;5158435;27;20199;-63
2023/01/20 04:00:57;;;;;;;50.97;25.58;;;;;;;2.61;100.00;98066.38;5159444;27;20296;-66
2023/01/20 04:03:28;;;;;;;44.78;25.27;;;;;;;2.46;100.00;98080.56;5159128;27;20059;-65
2023/01/20 04:05:57;;;;;;;44.47;25.73;;;;;;;2.29;100.00;98079.66;5159229;27;20103;-63
2023/01/20 04:08:29;;;;;;;42.13;23.52;;;;;;;2.31;100.00;98080.13;5159637;27;20054;-65
2023/01/20 04:10:57;;;;;;;57.28;29.88;;;;;;;2.45;100.00;98084.41;5159052;27;20051;-65
2023/01/20 04:13:23;;;;;;;69.45;35.10;;;;;;;2.58;100.00;98088.69;5159021;27;20050;-64
2023/01/20 04:15:49;;;;;;;69.03;33.78;;;;;;;2.46;100.00;98094.09;5159336;27;20297;-66
2023/01/20 04:18:18;;;;;;;65.05;30.38;;;;;;;2.47;100.00;98098.41;5158834;27;20054;-65
2023/01/20 04:20:48;;;;;;;47.45;25.00;;;;;;;2.37;100.00;98107.75;5159205;27;20047;-63
2023/01/20 04:23:23;;;;;;;72.32;27.20;;;;;;;2.46;100.00;98108.41;5158825;27;20111;-66
2023/01/20 04:25:49;;;;;;;51.53;26.17;;;;;;;2.34;100.00;98121.94;5159291;27;20047;-65
2023/01/20 04:28:15;;;;;;;53.15;26.30;;;;;;;2.60;100.00;98116.22;5158872;27;20051;-65
2023/01/20 04:30:41;;;;;;;45.20;23.95;;;;;;;2.39;100.00;98126.31;5159210;27;20372;-66
2023/01/20 04:33:07;;;;;;;52.92;23.92;;;;;;;2.57;100.00;98139.31;5158669;27;20193;-66
2023/01/20 04:35:34;;;;;;;50.40;22.50;;;;;;;2.47;100.00;98145.19;5159180;27;20051;-63
2023/01/20 04:38:00;;;;;;;43.42;19.33;;;;;;;2.45;100.00;98149.34;5158591;27;20400;-67
2023/01/20 04:40:27;;;;;;;29.10;16.20;;;;;;;2.47;100.00;98157.91;5158549;27;20061;-63
2023/01/20 04:42:53;;;;;;;31.15;15.93;;;;;;;2.43;100.00;98157.78;5158568;27;20430;-67
2023/01/20 04:45:19;;;;;;;45.35;19.02;;;;;;;2.45;100.00;98158.22;5158581;27;20061;-63
2023/01/20 04:47:45;;;;;;;48.20;16.92;;;;;;;2.78;100.00;98171.69;5158661;27;20050;-66
2023/01/20 04:50:13;;;;;;;41.80;18.48;;;;;;;2.38;100.00;98179.63;5158328;27;20058;-63
2023/01/20 04:52:39;;;;;;;50.25;23.85;;;;;;;2.47;100.00;98177.63;5158829;27;20046;-66
2023/01/20 04:55:06;;;;;;;64.75;22.38;;;;;;;2.61;100.00;98184.66;5158418;27;20327;-62
2023/01/20 04:57:33;;;;;;;52.55;21.55;;;;;;;2.41;100.00;98199.81;5158772;27;20051;-65
2023/01/20 04:59:59;;;;;;;49.78;23.85;;;;;;;2.32;100.00;98195.28;5158194;27;20069;-64
2023/01/20 05:02:25;;;;;;;63.05;22.77;;;;;;;2.25;100.00;98200.44;5158566;27;20046;-63
2023/01/20 05:04:51;;;;;;;60.20;26.00;;;;;;;2.44;100.00;98202.66;5158053;27;20051;-66
2023/01/20 05:07:17;;;;;;;50.20;23.58;;;;;;;2.76;100.00;98197.50;5158323;27;20057;-62
2023/01/20 05:09:44;;;;;;;53.05;26.85;;;;;;;2.39;100.00;98227.19;5157893;27;20055;-66
2023/01/20 05:12:10;;;;;;;41.90;20.55;;;;;;;2.70;100.00;98232.16;5158160;27;20407;-64
2023/01/20 05:14:37;;;;;;;35.78;16.67;;;;;;;2.60;100.00;98246.09;5158036;27;20047;-67
2023/01/20 05:17:03;;;;;;;29.00;15.30;;;;;;;2.19;100.00;98255.84;5157876;27;20047;-64
2023/01/20 05:19:29;;;;;;;25.70;14.82;;;;;;;2.25;100.00;98256.44;5158287;27;20054;-65
2023/01/20 05:22:10;;;;;;;28.38;13.77;;;;;;;2.52;100.00;98255.88;5123754;27;20069;-63
2023/01/20 05:24:37;;;;;;;30.20;13.52;;;;;;;2.25;100.00;98267.28;5158256;27;20047;-67
2023/01/20 05:27:03;;;;;;;27.08;12.40;;;;;;;2.27;100.00;98284.75;5157629;27;20408;-66
2023/01/20 05:29:30;;;;;;;26.05;12.27;;;;;;;2.26;100.00;98302.09;5158233;27;20057;-67
2023/01/20 05:31:57;;;;;;;26.52;12.13;;;;;;;2.10;100.00;98298.41;5157908;27;20050;-67
2023/01/20 05:34:23;;;;;;;19.15;11.13;;;;;;;1.91;100.00;98287.25;5157882;27;20046;-68
2023/01/20 05:36:51;;;;;;;29.35;12.63;;;;;;;2.04;100.00;98287.00;5157660;27;20051;-70
2023/01/20 05:39:17;;;;;;;21.95;11.50;;;;;;;1.97;100.00;98297.56;5157878;27;20342;-68
2023/01/20 05:41:45;;;;;;;19.92;11.68;;;;;;;2.02;100.00;98310.84;5157796;27;20050;-69
2023/01/20 05:44:11;;;;;;;22.63;10.63;;;;;;;1.76;100.00;98327.25;5157506;27;20061;-67
2023/01/20 05:46:37;;;;;;;16.67;9.80;;;;;;;1.61;100.00;98327.81;5157883;27;20051;-66
2023/01/20 05:49:04;;;;;;;19.52;11.02;;;;;;;1.66;100.00;98335.72;5157377;27;20051;-69
2023/01/20 05:51:31;;;;;;;20.77;11.48;;;;;;;1.55;100.00;98350.72;5157869;27;20098;-67
2023/01/20 05:53:57;;;;;;;23.25;12.32;;;;;;;1.75;100.00;98344.59;5157395;27;20043;-67
2023/01/20 05:56:23;;;;;;;30.05;14.63;;;;;;;1.87;100.00;98352.00;5157966;27;20080;-68
2023/01/20 05:58:53;;;;;;;26.48;13.48;;;;;;;1.75;100.00;98366.19;5157271;27;20061;-67
2023/01/20 06:01:19;;;;;;;27.35;12.23;;;;;;;1.67;100.00;98383.25;5157305;27;20055;-69
2023/01/20 06:03:46;;;;;;;28.15;15.00;;;;;;;2.07;100.00;98380.19;5157281;27;20058;-64
2023/01/20 06:06:16;;;;;;;25.48;14.10;;;;;;;1.81;100.00;98408.16;5157426;27;20055;-70
2023/01/20 06:08:42;;;;;;;32.38;16.08;;;;;;;1.87;100.00;98420.34;5157490;27;20054;-69
2023/01/20 06:11:09;;;;;;;27.67;14.45;;;;;;;1.90;100.00;98435.13;5157102;27;20058;-65
2023/01/20 06:13:35;;;;;;;25.58;13.43;;;;;;;1.59;100.00;98446.22;5157186;27;20137;-67
2023/01/20 06:16:01;;;;;;;26.85;13.88;;;;;;;1.93;100.00;98456.09;5156937;27;20137;-67
2023/01/20 06:18:29;;;;;;;23.73;13.20;;;;;;;1.94;100.00;98459.59;5157041;27;20049;-67
2023/01/20 06:20:56;;;;;;;29.95;14.85;;;;;;;2.24;100.00;98472.03;5157030;27;20077;-70
2023/01/20 06:23:23;;;;;;;24.48;14.45;;;;;;;2.34;100.00;98490.56;5161039;27;20051;-69
2023/01/20 06:25:57;;;;;;;27.70;15.27;;;;;;;2.34;100.00;98523.03;5160984;27;20042;-69
2023/01/20 06:28:23;;;;;;;20.25;12.45;;;;;;;2.12;100.00;98550.31;5161402;27;20047;-76
2023/01/20 06:30:49;;;;;;;18.48;11.23;;;;;;;2.50;100.00;98561.16;5161468;27;20055;-71
2023/01/20 06:33:15;;;;;;;18.63;10.65;;;;;;;2.76;100.00;98592.69;5161137;27;20060;-72
2023/01/20 06:35:42;;;;;;;15.57;9.68;;;;;;;2.69;100.00;98638.41;5161334;27;20342;-66
2023/01/20 06:38:08;;;;;;;14.90;9.27;;;;;;;2.83;100.00;98675.00;5160388;27;20079;-71
2023/01/20 06:40:35;;;;;;;16.40;9.82;;;;;;;2.90;100.00;98723.22;5160723;27;20046;-65
2023/01/20 06:43:02;;;;;;;16.25;9.40;;;;;;;3.20;100.00;98755.72;5160265;27;20443;-71
2023/01/20 06:45:28;;;;;;;16.67;9.45;;;;;;;2.87;100.00;98799.69;5160662;27;20107;-68
2023/01/20 06:47:54;;;;;;;22.63;9.93;;;;;;;3.01;100.00;98834.69;5160108;27;20399;-64
2023/01/20 06:50:20;;;;;;;16.13;10.13;;;;;;;2.92;100.00;98855.56;5160338;27;20046;-73
2023/01/20 06:52:47;;;;;;;14.85;9.45;;;;;;;2.76;100.00;98876.91;5159811;27;20068;-67
2023/01/20 06:55:13;;;;;;;13.43;8.77;;;;;;;2.95;100.00;98885.50;5159839;27;20058;-75
2023/01/20 06:57:40;;;;;;;15.27;8.15;;;;;;;2.89;100.00;98891.41;5159859;27;20137;-65
2023/01/20 07:00:09;;;;;;;13.05;8.35;;;;;;;2.67;100.00;98905.91;5160023;27;20046;-71
2023/01/20 07:02:35;;;;;;;12.93;7.85;;;;;;;2.81;100.00;98910.03;5160262;27;20344;-69
2023/01/20 07:05:01;;;;;;;12.77;7.32;;;;;;;2.64;100.00;98920.09;5160020;27;20057;-71
2023/01/20 07:07:28;;;;;;;13.15;7.82;;;;;;;2.26;100.00;98932.28;5160374;27;20046;-68
2023/01/20 07:09:54;;;;;;;14.25;7.32;;;;;;;2.47;100.00;98937.09;5159482;27;20058;-69
2023/01/20 07:12:20;;;;;;;17.20;8.55;;;;;;;2.52;100.00;98939.66;5159788;27;20476;-65
2023/01/20 07:14:47;;;;;;;17.33;8.35;;;;;;;2.53;100.00;98943.94;5160330;27;20069;-68
2023/01/20 07:17:13;;;;;;;13.40;7.95;;;;;;;2.54;100.00;98951.75;5160295;27;20058;-70
2023/01/20 07:19:40;;;;;;;15.27;8.27;;;;;;;2.32;100.00;98954.56;5159435;27;20057;-66
2023/01/20 07:22:06;;;;;;;15.50;9.02;;;;;;;2.44;100.00;98960.19;5159825;27;20046;-68
2023/01/20 07:24:32;;;;;;;15.63;8.98;;;;;;;2.31;100.00;98961.09;5159513;27;20081;-66
2023/01/20 07:26:58;;;;;;;15.88;8.68;;;;;;;2.15;100.00;98968.84;5159534;27;20077;-70
2023/01/20 07:29:26;;;;;;;15.70;8.68;;;;;;;2.26;100.00;98964.72;5159462;27;20407;-65
2023/01/20 07:31:53;;;;;;;14.45;8.95;;;;;;;1.77;100.00;98969.34;5159528;27;20059;-65
2023/01/20 07:34:19;;;;;;;17.60;8.13;;;;;;;2.32;100.00;98958.06;5159107;27;20053;-69
2023/01/20 07:36:45;;;;;;;17.35;8.13;;;;;;;2.62;100.00;98965.59;5159398;27;20050;-66
2023/01/20 07:39:11;;;;;;;16.65;8.70;;;;;;;2.54;100.00;98989.63;5159844;27;20127;-69
2023/01/20 07:41:38;;;;;;;19.42;9.25;;;;;;;2.01;100.00;99012.22;5159277;27;20114;-66
2023/01/20 07:44:04;;;;;;;15.30;8.40;;;;;;;1.99;100.00;99008.25;5159579;27;20042;-66
2023/01/20 07:46:31;;;;;;;15.82;8.88;;;;;;;2.36;100.00;99007.72;5159218;27;20058;-68
2023/01/20 07:48:58;;;;;;;17.50;8.10;;;;;;;2.17;100.00;99025.34;5159562;27;20061;-70
2023/01/20 07:51:24;;;;;;;18.80;8.38;;;;;;;2.40;100.00;99015.22;5158956;27;20051;-67
2023/01/20 07:53:51;;;;;;;16.45;8.57;;;;;;;2.38;100.00;99015.53;5159247;27;20050;-68
2023/01/20 07:56:19;;;;;;;16.88;8.60;;;;;;;2.13;100.00;99025.16;5159142;27;20054;-73
2023/01/20 07:58:46;;;;;;;19.85;10.90;;;;;;;2.39;100.00;99013.63;5159018;27;20051;-65
2023/01/20 08:01:15;;;;;;;13.57;7.43;;;;;;;2.25;100.00;99019.94;5159344;27;20409;-67
2023/01/20 08:03:41;;;;;;;16.75;7.57;;;;;;;2.45;100.00;99021.28;5158703;27;20486;-69
2023/01/20 08:06:10;;;;;;;17.50;8.15;;;;;;;2.41;100.00;99038.47;5159292;27;20299;-66
2023/01/20 08:08:37;;;;;;;19.02;8.93;;;;;;;2.68;100.00;99035.50;5158865;27;20107;-67
2023/01/20 08:11:04;;;;;;;17.85;8.70;;;;;;;2.80;100.00;99049.25;5159244;27;20050;-70
2023/01/20 08:13:31;;;;;;;20.05;8.38;;;;;;;2.74;100.00;99061.31;5158789;27;20065;-64
2023/01/20 08:16:00;;;;;;;16.88;8.75;;;;;;;2.45;100.00;99070.00;5159075;27;20051;-67
2023/01/20 08:18:26;;;;;;;12.93;6.95;;;;;;;2.38;100.00;99071.56;5158510;27;20074;-67
2023/01/20 08:20:52;;;;;;;16.90;8.57;;;;;;;2.57;100.00;99069.41;5158461;27;20182;-72
2023/01/20 08:23:19;;;;;;;14.63;7.93;;;;;;;2.81;100.00;99082.53;5158583;27;20062;-67
2023/01/20 08:25:45;;;;;;;18.50;7.45;;;;;;;2.58;100.00;99098.84;5158616;27;20434;-60
2023/01/20 08:28:12;;;;;;;14.45;7.55;;;;;;;2.58;100.00;99108.88;5158622;27;20368;-65
2023/01/20 08:30:38;;;;;;;13.98;7.53;;;;;;;2.65;100.00;99117.34;5158256;27;20050;-69
2023/01/20 08:33:05;;;;;;;12.25;7.63;;;;;;;2.83;100.00;99127.13;5158656;27;20043;-67
2023/01/20 08:35:31;;;;;;;13.20;7.85;;;;;;;2.64;100.00;99126.59;5158844;27;20053;-73
2023/01/20 08:37:57;;;;;;;13.73;7.32;;;;;;;2.94;100.00;99135.75;5158802;27;20431;-63
2023/01/20 08:40:24;;;;;;;17.58;7.95;;;;;;;2.94;100.00;99133.03;5158118;27;20145;-67
2023/01/20 08:42:51;;;;;;;12.50;7.50;;;;;;;2.94;100.00;99127.63;5158699;27;20051;-71
2023/01/20 08:45:17;;;;;;;17.38;9.68;;;;;;;2.79;100.00;99134.25;5157605;27;20316;-64
2023/01/20 08:47:44;;;;;;;15.60;7.88;;;;;;;2.63;100.00;99138.50;5158472;27;20051;-73
2023/01/20 08:50:13;;;;;;;14.75;7.22;;;;;;;2.63;100.00;99141.19;5158207;27;20043;-71
2023/01/20 08:52:39;;;;;;;11.63;6.65;;;;;;;2.86;100.00;99143.84;5158130;27;20137;-65
2023/01/20 08:55:06;;;;;;;10.82;6.15;;;;;;;2.81;100.00;99152.91;5158190;27;20142;-67
2023/01/20 08:57:33;;;;;;;15.60;7.60;;;;;;;2.66;100.00;99162.22;5158296;27;20050;-65
2023/01/20 08:59:59;;;;;;;14.50;8.43;;;;;;;3.03;100.00;99165.53;5158312;27;20071;-67
2023/01/20 09:02:26;;;;;;;13.38;6.40;;;;;;;3.13;100.00;99172.59;5157922;27;20051;-69
2023/01/20 09:04:53;;;;;;;10.02;6.00;;;;;;;3.09;100.00;99180.53;5158069;27;20434;-66
2023/01/20 09:07:20;;;;;;;10.05;6.65;;;;;;;2.97;100.00;99188.50;5157828;27;20163;-65
2023/01/20 09:09:47;;;;;;;11.82;5.97;;;;;;;2.81;100.00;99190.81;5156641;27;20054;-65
2023/01/20 09:12:13;;;;;;;13.73;5.97;;;;;;;3.06;100.00;99200.13;5158066;27;20050;-72
2023/01/20 09:14:40;;;;;;;12.18;6.40;;;;;;;3.09;100.00;99201.41;5157973;27;20339;-70
2023/01/20 09:17:07;;;;;;;10.00;6.38;;;;;;;3.24;100.00;99206.41;5158340;27;20043;-67
2023/01/20 09:19:33;;;;;;;9.32;5.20;;;;;;;3.27;100.00;99193.03;5157961;27;20141;-68
2023/01/20 09:21:59;;;;;;;8.45;4.88;;;;;;;3.10;100.00;99178.63;5158436;27;20057;-65
2023/01/20 09:24:25;;;;;;;10.68;5.05;;;;;;;3.26;100.00;99186.00;5157881;27;20054;-69
2023/01/20 09:26:52;;;;;;;8.25;4.60;;;;;;;3.37;100.00;99181.09;5158249;27;20055;-64
2023/01/20 09:29:19;;;;;;;7.22;4.82;;;;;;;3.24;100.00;99158.44;5157901;27;20051;-64
2023/01/20 09:31:50;;;;;;;8.20;4.70;;;;;;;3.34;100.00;99161.97;5157784;27;20047;-67
2023/01/20 09:34:20;;;;;;;9.88;5.07;;;;;;;3.20;100.00;99143.94;5157698;27;20053;-64
2023/01/20 09:36:49;;;;;;;8.77;5.13;;;;;;;3.23;100.00;99151.44;5158076;27;20308;-66
2023/01/20 09:45:08;;;;;;;6.60;4.40;;;;;;;3.02;100.00;99177.50;5157790;27;20053;-69
2023/01/20 09:47:40;;;;;;;5.90;4.07;;;;;;;3.16;100.00;99177.38;5157627;27;20057;-67
2023/01/20 09:53:16;;;;;;;7.35;4.72;;;;;;;3.00;100.00;99175.13;5157637;27;20073;-68
2023/01/20 09:55:50;;;;;;;6.63;4.53;;;;;;;3.10;100.00;99200.28;5157727;27;20061;-68
2023/01/20 09:58:20;;;;;;;;;;;;;;;3.09;100.00;99196.78;5161677;27;20050;-65
2023/01/20 10:00:51;;;;;;;6.63;4.22;;;;;;;3.20;100.00;99184.56;5160981;27;19927;-64
2023/01/20 10:03:23;;;;;;;6.13;3.97;;;;;;;3.16;100.00;99171.97;5161417;27;20047;-63
2023/01/20 10:05:53;;;;;;;7.10;4.25;;;;;;;3.18;100.00;99167.81;5160818;27;20047;-64
2023/01/20 10:08:25;;;;;;;5.18;4.28;;;;;;;3.20;100.00;99162.91;5161211;27;20050;-68
2023/01/20 10:10:56;;;;;;;8.23;4.55;;;;;;;3.05;100.00;99169.53;5160729;27;20064;-68
2023/01/20 10:13:31;;;;;;;6.60;4.22;;;;;;;3.17;100.00;99165.44;5160696;27;20426;-66
2023/01/20 10:16:00;;;;;;;5.22;3.50;;;;;;;3.18;100.00;99173.25;5161100;27;20301;-62
2023/01/20 10:18:35;;;;;;;7.45;3.90;;;;;;;3.15;100.00;99178.50;5160715;27;20043;-69
2023/01/20 10:21:07;;;;;;;3.92;2.92;;;;;;;2.98;100.00;99155.66;5160899;27;20149;-67
2023/01/20 10:23:41;;;;;;;3.83;2.75;;;;;;;2.78;100.00;99164.38;5160504;27;20057;-67
2023/01/20 10:26:11;;;;;;;3.20;2.90;;;;;;;2.78;100.00;99169.78;5160855;27;20047;-65
2023/01/20 10:28:40;;;;;;;5.40;3.13;;;;;;;2.74;100.00;99164.19;5160432;27;20047;-63
2023/01/20 10:31:07;;;;;;;5.82;3.22;;;;;;;2.85;100.00;99180.16;5160873;27;20365;-65
2023/01/20 10:33:37;;;;;;;3.08;2.70;;;;;;;2.56;100.00;99167.94;5160433;27;20050;-67
2023/01/20 10:36:08;;;;;;;3.53;2.30;;;;;;;2.70;100.00;99179.47;5160363;27;20051;-64
2023/01/20 10:38:42;;;;;;;7.68;3.40;;;;;;;2.76;100.00;99183.63;5160534;27;20050;-65
2023/01/20 10:41:16;;;;;;;4.00;3.03;;;;;;;2.86;100.00;99187.16;5160177;27;20488;-66
2023/01/20 10:43:42;;;;;;;;;;;;;;;2.99;100.00;99183.53;5161135;27;20050;-67
2023/01/20 10:46:33;;;;;;;3.45;2.42;;;;;;;2.82;100.00;99190.50;5160437;27;19923;-67
2023/01/20 10:49:26;;;;;;;3.67;2.50;;;;;;;2.88;100.00;99174.13;5160742;27;20163;-64
2023/01/20 10:52:03;;;;;;;2.15;1.95;;;;;;;2.75;100.00;99170.41;5160345;27;20133;-64
2023/01/20 10:54:39;;;;;;;2.25;2.05;;;;;;;2.79;100.00;99169.44;5160331;27;20118;-67
2023/01/20 10:57:12;;;;;;;3.40;2.28;;;;;;;2.78;100.00;99162.44;5160233;27;20142;-67
2023/01/20 10:59:43;;;;;;;4.03;2.70;;;;;;;2.85;100.00;99164.69;5160166;27;20062;-65
2023/01/20 11:02:16;;;;;;;2.70;2.20;;;;;;;2.72;100.00;99146.66;5160126;27;20046;-67
2023/01/20 11:04:44;;;;;;;2.55;2.33;;;;;;;2.86;100.00;99160.09;5159825;27;20046;-67
2023/01/20 11:07:15;;;;;;;3.20;2.10;;;;;;;2.81;100.00;99159.13;5159540;27;20073;-67
2023/01/20 11:09:42;;;;;;;2.58;2.35;;;;;;;2.62;100.00;99161.28;5159902;27;20042;-65
2023/01/20 11:12:13;;;;;;;2.00;1.90;;;;;;;2.61;100.00;99150.78;5160055;27;20057;-67
2023/01/20 11:14:40;;;;;;;2.38;2.13;;;;;;;2.70;100.00;99149.69;5160126;27;20061;-68
2023/01/20 11:17:12;;;;;;;2.90;2.17;;;;;;;2.65;100.00;99160.66;5159627;27;20092;-65
2023/01/20 11:19:51;;;;;;;5.72;3.45;;;;;;;2.85;100.00;99183.66;5160124;27;20047;-63
2023/01/20 11:22:29;;;;;;;5.18;2.88;;;;;;;2.86;100.00;99201.50;5159615;27;20133;-64
2023/01/20 11:24:58;;;;;;;5.85;2.80;;;;;;;2.67;100.00;99200.97;5160084;27;20062;-66
2023/01/20 11:27:28;;;;;;;4.45;2.20;;;;;;;2.63;100.00;99219.69;5159567;27;20046;-67
2023/01/20 11:29:58;;;;;;;2.53;2.30;;;;;;;2.68;100.00;99211.47;5159566;27;20047;-66
2023/01/20 11:32:27;;;;;;;3.03;1.95;;;;;;;2.76;100.00;99207.97;5159855;27;20046;-65
2023/01/20 11:34:54;;;;;;;3.05;2.33;;;;;;;2.71;100.00;99191.88;5159455;27;20043;-65
2023/01/20 11:37:24;;;;;;;3.25;2.30;;;;;;;2.73;100.00;99181.56;5159758;27;20057;-64
2023/01/20 11:40:02;;;;;;;2.53;2.33;;;;;;;2.59;100.00;99192.47;5159714;27;20051;-66